createdAt,value
2023-05-02T00:02:26.154Z,32.95
2023-05-02T00:04:54.712Z,21.90
2023-05-02T00:07:22.918Z,17.13
2023-05-02T00:09:51.554Z,18.85
2023-05-02T00:12:20.778Z,18.08
2023-05-02T00:14:49.109Z,16.60
2023-05-02T00:17:20.785Z,18.85
2023-05-02T00:19:49.099Z,18.15
2023-05-02T00:22:17.549Z,15.90
2023-05-02T00:24:45.558Z,15.90
2023-05-02T00:27:14.455Z,16.00
2023-05-02T00:29:43.033Z,16.15
2023-05-02T00:32:11.258Z,14.80
2023-05-02T00:34:41.256Z,14.70
2023-05-02T00:37:09.571Z,16.48
2023-05-02T00:39:41.137Z,17.92
2023-05-02T00:42:09.791Z,18.25
2023-05-02T00:44:38.240Z,17.20
2023-05-02T00:47:06.846Z,17.42
2023-05-02T00:49:35.079Z,14.50
2023-05-02T00:52:04.683Z,14.18
2023-05-02T00:54:32.893Z,14.50
2023-05-02T00:57:01.238Z,13.27
2023-05-02T00:59:30.349Z,14.20
2023-05-02T01:02:06.764Z,14.30
2023-05-02T01:04:45.772Z,14.32
2023-05-02T01:07:37.214Z,13.95
2023-05-02T01:10:16.469Z,14.25
2023-05-02T01:12:52.780Z,18.02
2023-05-02T01:15:23.714Z,19.83
2023-05-02T01:17:53.761Z,21.88
2023-05-02T01:20:24.978Z,22.48
2023-05-02T01:22:57.517Z,22.85
2023-05-02T01:25:38.594Z,25.15
2023-05-02T01:28:18.292Z,25.92
2023-05-02T01:30:51.774Z,25.00
2023-05-02T01:33:21.759Z,24.17
2023-05-02T01:35:53.050Z,21.33
2023-05-02T01:38:23.770Z,20.85
2023-05-02T01:40:53.295Z,20.52
2023-05-02T01:43:22.515Z,20.10
2023-05-02T01:45:54.568Z,21.02
2023-05-02T01:48:24.743Z,19.88
2023-05-02T01:50:53.554Z,18.58
2023-05-02T01:53:24.085Z,17.58
2023-05-02T01:55:54.045Z,19.02
2023-05-02T01:58:23.115Z,18.23
2023-05-02T02:00:54.085Z,18.42
2023-05-02T02:03:24.221Z,17.92
2023-05-02T02:05:55.533Z,17.98
2023-05-02T02:08:24.097Z,17.30
2023-05-02T02:10:58.906Z,17.92
2023-05-02T02:13:34.202Z,15.80
2023-05-02T02:16:07.341Z,16.25
2023-05-02T02:18:39.801Z,17.70
2023-05-02T02:21:10.957Z,17.40
2023-05-02T02:23:43.560Z,17.23
2023-05-02T02:26:17.156Z,16.67
2023-05-02T02:28:45.657Z,18.15
2023-05-02T02:31:15.816Z,16.70
2023-05-02T02:33:44.612Z,15.52
2023-05-02T02:36:16.962Z,14.50
2023-05-02T02:38:51.818Z,15.55
2023-05-02T02:41:27.693Z,16.55
2023-05-02T02:44:05.996Z,15.55
2023-05-02T02:46:48.683Z,14.75
2023-05-02T02:49:28.519Z,14.90
2023-05-02T02:52:04.177Z,14.73
2023-05-02T02:54:40.399Z,15.82
2023-05-02T02:57:17.713Z,15.88
2023-05-02T02:59:52.670Z,15.25
2023-05-02T03:04:55.113Z,14.93
2023-05-02T03:07:23.511Z,15.23
2023-05-02T03:09:51.859Z,14.95
2023-05-02T03:12:20.156Z,15.88
2023-05-02T03:14:48.557Z,15.90
2023-05-02T03:17:16.833Z,15.00
2023-05-02T03:19:47.389Z,16.58
2023-05-02T03:22:15.562Z,18.08
2023-05-02T03:24:43.854Z,18.90
2023-05-02T03:27:12.287Z,18.92
2023-05-02T03:29:40.391Z,18.80
2023-05-02T03:32:08.694Z,19.65
2023-05-02T03:34:39.548Z,18.75
2023-05-02T03:37:09.224Z,19.23
2023-05-02T03:39:37.281Z,18.67
2023-05-02T03:42:05.666Z,19.88
2023-05-02T03:44:33.778Z,18.10
2023-05-02T03:47:03.335Z,19.33
2023-05-02T03:49:31.501Z,20.52
2023-05-02T03:51:59.680Z,21.90
2023-05-02T03:54:29.234Z,19.98
2023-05-02T03:56:58.229Z,13.75
2023-05-02T03:59:27.419Z,13.50
2023-05-02T04:01:55.655Z,14.15
2023-05-02T04:04:23.795Z,14.32
2023-05-02T04:06:52.114Z,14.10
2023-05-02T04:09:25.236Z,15.43
2023-05-02T04:11:55.376Z,13.95
2023-05-02T04:14:23.630Z,14.68
2023-05-02T04:16:52.377Z,14.40
2023-05-02T04:19:20.801Z,13.30
2023-05-02T04:21:48.940Z,13.43
2023-05-02T04:24:17.080Z,13.73
2023-05-02T04:26:46.306Z,13.52
2023-05-02T04:29:15.802Z,14.13
2023-05-02T04:31:44.316Z,13.40
2023-05-02T04:34:12.604Z,13.30
2023-05-02T04:36:40.693Z,12.13
2023-05-02T04:39:08.874Z,12.88
2023-05-02T04:41:37.087Z,12.95
2023-05-02T04:44:05.335Z,13.13
2023-05-02T04:46:34.986Z,12.32
2023-05-02T04:49:05.824Z,12.02
2023-05-02T04:51:34.122Z,11.65
2023-05-02T04:54:02.217Z,11.65
2023-05-02T04:56:30.239Z,10.65
2023-05-02T04:58:58.433Z,10.30
2023-05-02T05:01:28.095Z,10.73
2023-05-02T05:03:58.174Z,11.30
2023-05-02T05:06:26.578Z,11.38
2023-05-02T05:08:54.709Z,9.40
2023-05-02T05:11:23.413Z,10.60
2023-05-02T05:13:51.783Z,9.60
2023-05-02T05:16:19.880Z,9.10
2023-05-02T05:18:49.371Z,8.77
2023-05-02T05:21:18.837Z,9.23
2023-05-02T05:23:47.779Z,9.50
2023-05-02T05:26:17.296Z,9.05
2023-05-02T05:28:45.874Z,8.35
2023-05-02T05:31:16.936Z,8.88
2023-05-02T05:33:45.506Z,7.40
2023-05-02T05:36:15.096Z,8.32
2023-05-02T05:38:44.782Z,7.55
2023-05-02T05:41:12.932Z,8.77
2023-05-02T05:43:40.955Z,7.50
2023-05-02T05:46:09.152Z,7.72
2023-05-02T05:48:37.279Z,6.78
2023-05-02T05:51:06.520Z,7.20
2023-05-02T05:53:34.735Z,6.30
2023-05-02T05:56:11.212Z,6.85
2023-05-02T05:58:40.035Z,6.57
2023-05-02T06:01:09.326Z,6.88
2023-05-02T06:03:37.614Z,6.90
2023-05-02T06:06:06.509Z,6.45
2023-05-02T06:08:34.760Z,6.60
2023-05-02T06:11:02.909Z,6.60
2023-05-02T06:13:32.506Z,6.65
2023-05-02T06:16:02.653Z,8.32
2023-05-02T06:18:31.625Z,9.52
2023-05-02T06:20:59.820Z,8.63
2023-05-02T06:23:27.938Z,8.68
2023-05-02T06:25:56.179Z,7.15
2023-05-02T06:28:24.530Z,6.78
2023-05-02T06:31:01.305Z,6.45
2023-05-02T06:33:29.668Z,7.10
2023-05-02T06:35:59.259Z,6.65
2023-05-02T06:38:29.728Z,7.53
2023-05-02T06:40:57.983Z,8.10
2023-05-02T06:43:26.140Z,7.82
2023-05-02T06:45:55.609Z,7.35
2023-05-02T06:48:25.252Z,7.25
2023-05-02T06:50:54.123Z,7.32
2023-05-02T06:53:22.356Z,7.50
2023-05-02T06:55:51.199Z,8.63
2023-05-02T06:58:19.344Z,7.68
2023-05-02T07:00:48.889Z,5.85
2023-05-02T07:03:17.423Z,6.03
2023-05-02T07:05:46.915Z,6.90
2023-05-02T07:08:15.044Z,7.10
2023-05-02T07:10:43.220Z,6.00
2023-05-02T07:13:11.403Z,6.88
2023-05-02T07:15:39.719Z,5.60
2023-05-02T07:18:07.855Z,6.43
2023-05-02T07:20:36.077Z,6.60
2023-05-02T07:23:05.535Z,6.70
2023-05-02T07:25:33.853Z,7.55
2023-05-02T07:28:02.027Z,5.90
2023-05-02T07:30:30.286Z,5.32
2023-05-02T07:32:58.480Z,5.35
2023-05-02T07:35:26.924Z,6.18
2023-05-02T07:37:55.148Z,5.68
2023-05-02T07:40:24.770Z,5.35
2023-05-02T07:42:52.944Z,5.43
2023-05-02T07:45:21.352Z,5.28
2023-05-02T07:47:49.705Z,5.22
2023-05-02T07:50:18.018Z,4.43
2023-05-02T07:52:46.108Z,5.03
2023-05-02T07:55:15.230Z,4.70
2023-05-02T07:57:44.676Z,4.88
2023-05-02T08:00:13.798Z,4.38
2023-05-02T08:02:42.871Z,4.15
2023-05-02T08:05:11.410Z,4.55
2023-05-02T08:07:39.784Z,4.00
2023-05-02T08:10:09.390Z,4.25
2023-05-02T08:12:40.262Z,3.45
2023-05-02T08:15:14.064Z,4.15
2023-05-02T08:17:42.267Z,3.47
2023-05-02T08:20:11.082Z,4.00
2023-05-02T08:22:39.328Z,4.20
2023-05-02T08:25:08.169Z,4.15
2023-05-02T08:27:36.514Z,3.72
2023-05-02T08:30:05.318Z,3.90
2023-05-02T08:32:35.411Z,12.38
2023-05-02T08:35:03.795Z,3.92
2023-05-02T08:37:32.402Z,7.07
2023-05-02T08:40:01.862Z,4.60
2023-05-02T08:42:33.117Z,5.47
2023-05-02T08:45:02.095Z,5.40
2023-05-02T08:47:33.172Z,3.28
2023-05-02T08:50:04.060Z,3.42
2023-05-02T08:52:33.808Z,3.53
2023-05-02T08:55:03.834Z,3.30
2023-05-02T08:57:32.465Z,3.72
2023-05-02T09:00:00.684Z,3.90
2023-05-02T09:02:59.043Z,3.15
2023-05-02T09:05:28.830Z,4.18
2023-05-02T09:07:57.081Z,3.65
2023-05-02T09:10:29.685Z,3.97
2023-05-02T09:12:57.772Z,3.08
2023-05-02T09:15:25.910Z,3.50
2023-05-02T09:17:54.238Z,3.25
2023-05-02T09:20:22.735Z,3.83
2023-05-02T09:22:54.014Z,3.83
2023-05-02T09:25:22.179Z,4.13
2023-05-02T09:27:52.423Z,3.47
2023-05-02T09:30:22.433Z,3.25
2023-05-02T09:32:55.236Z,3.30
2023-05-02T09:35:26.679Z,3.88
2023-05-02T09:37:58.065Z,3.78
2023-05-02T09:40:28.192Z,3.78
2023-05-02T09:42:57.933Z,3.90
2023-05-02T09:45:27.899Z,3.80
2023-05-02T09:47:56.002Z,3.35
2023-05-02T09:50:40.393Z,3.20
2023-05-02T09:53:11.954Z,3.53
2023-05-02T09:55:40.118Z,3.00
2023-05-02T09:58:08.256Z,3.35
2023-05-02T10:00:43.762Z,3.35
2023-05-02T10:03:12.741Z,2.75
2023-05-02T10:05:41.372Z,3.30
2023-05-02T10:08:11.386Z,3.28
2023-05-02T10:10:40.768Z,2.88
2023-05-02T10:13:10.066Z,3.05
2023-05-02T10:15:43.884Z,2.95
2023-05-02T10:18:15.531Z,3.15
2023-05-02T10:20:49.938Z,2.88
2023-05-02T10:23:21.372Z,3.25
2023-05-02T10:25:50.375Z,3.78
2023-05-02T10:28:18.791Z,2.88
2023-05-02T10:30:47.849Z,3.17
2023-05-02T10:33:17.564Z,3.38
2023-05-02T10:35:46.990Z,3.10
2023-05-02T10:38:19.302Z,2.88
2023-05-02T10:40:59.174Z,2.80
2023-05-02T10:43:29.994Z,3.10
2023-05-02T10:45:58.409Z,2.67
2023-05-02T10:48:28.026Z,3.10
2023-05-02T10:50:57.757Z,2.95
2023-05-02T10:53:27.909Z,3.10
2023-05-02T10:56:18.378Z,3.13
2023-05-02T10:58:48.941Z,3.05
2023-05-02T11:01:40.375Z,3.13
2023-05-02T11:04:10.198Z,3.00
2023-05-02T11:06:59.347Z,3.33
2023-05-02T11:09:36.676Z,2.58
2023-05-02T11:12:07.226Z,3.00
2023-05-02T11:14:51.036Z,3.08
2023-05-02T11:17:21.150Z,2.88
2023-05-02T11:20:27.991Z,2.75
2023-05-02T11:22:58.334Z,2.85
2023-05-02T11:25:34.486Z,2.85
2023-05-02T11:28:06.557Z,2.88
2023-05-02T11:30:44.038Z,2.47
2023-05-02T11:33:20.309Z,2.92
2023-05-02T11:35:51.818Z,2.88
2023-05-02T11:38:23.097Z,2.92
2023-05-02T11:40:53.299Z,2.75
2023-05-02T11:43:25.409Z,2.90
2023-05-02T11:45:54.702Z,2.65
2023-05-02T11:48:27.306Z,3.20
2023-05-02T11:50:57.559Z,2.58
2023-05-02T11:53:28.941Z,2.55
2023-05-02T11:55:58.778Z,2.45
2023-05-02T11:58:32.323Z,2.90
2023-05-02T12:01:01.399Z,2.80
2023-05-02T12:03:31.402Z,3.28
2023-05-02T12:06:10.255Z,2.78
2023-05-02T12:08:38.779Z,3.10
2023-05-02T12:11:06.952Z,2.80
2023-05-02T12:13:36.667Z,2.80
2023-05-02T12:16:05.123Z,2.67
2023-05-02T12:18:34.266Z,2.60
2023-05-02T12:21:02.529Z,2.70
2023-05-02T12:23:30.814Z,2.53
2023-05-02T12:26:00.603Z,2.70
2023-05-02T12:28:28.826Z,4.72
2023-05-02T12:30:58.333Z,2.30
2023-05-02T12:33:26.641Z,3.08
2023-05-02T12:35:54.814Z,2.88
2023-05-02T12:38:23.572Z,2.42
2023-05-02T12:40:53.645Z,2.45
2023-05-02T12:43:22.394Z,2.72
2023-05-02T12:45:53.930Z,2.60
2023-05-02T12:48:25.745Z,2.55
2023-05-02T12:50:55.493Z,2.53
2023-05-02T12:53:40.913Z,2.95
2023-05-02T12:56:10.454Z,2.90
2023-05-02T12:58:43.225Z,2.95
2023-05-02T13:01:11.976Z,4.28
2023-05-02T13:03:42.099Z,3.70
2023-05-02T13:06:11.173Z,4.78
2023-05-02T13:08:39.938Z,5.97
2023-05-02T13:11:08.057Z,7.07
2023-05-02T13:13:36.348Z,7.82
2023-05-02T13:16:05.248Z,11.52
2023-05-02T13:21:03.069Z,31.10
2023-05-02T13:23:31.160Z,13.93
2023-05-02T13:25:59.291Z,16.70
2023-05-02T13:28:27.951Z,13.13
2023-05-02T13:30:56.185Z,17.20
2023-05-02T13:33:24.472Z,19.75
2023-05-02T13:35:52.623Z,14.98
2023-05-02T13:38:22.606Z,15.88
2023-05-02T13:40:51.566Z,14.55
2023-05-02T13:43:19.706Z,18.73
2023-05-02T13:45:49.092Z,13.73
2023-05-02T13:48:17.539Z,15.52
2023-05-02T13:50:45.588Z,15.65
2023-05-02T13:53:15.055Z,10.80
2023-05-02T13:55:44.684Z,9.75
2023-05-02T13:58:12.847Z,13.85
2023-05-02T14:00:40.952Z,14.05
2023-05-02T14:03:11.314Z,9.73
2023-05-02T14:05:43.633Z,9.80
2023-05-02T14:08:12.090Z,22.70
2023-05-02T14:10:40.337Z,19.38
2023-05-02T14:13:09.905Z,11.88
2023-05-02T14:15:38.357Z,10.65
2023-05-02T14:18:06.533Z,13.55
2023-05-02T14:20:34.673Z,10.15
2023-05-02T14:23:03.722Z,7.47
2023-05-02T14:25:32.809Z,10.23
2023-05-02T14:28:01.802Z,19.88
2023-05-02T14:30:32.296Z,17.27
2023-05-02T14:33:00.463Z,9.48
2023-05-02T14:35:28.962Z,34.60
2023-05-02T14:37:57.098Z,78.13
2023-05-02T14:40:25.180Z,191.55
2023-05-02T14:42:53.347Z,40.00
2023-05-02T14:45:21.544Z,73.20
2023-05-02T14:47:51.684Z,46.42
2023-05-02T14:50:20.006Z,38.10
2023-05-02T14:52:48.187Z,34.33
2023-05-02T14:55:16.205Z,7.88
2023-05-02T14:57:44.392Z,10.40
2023-05-02T15:00:13.527Z,42.33
2023-05-02T15:02:41.943Z,20.35
2023-05-02T15:05:13.118Z,22.13
2023-05-02T15:07:41.382Z,374.65
2023-05-02T15:10:10.457Z,14.85
2023-05-02T15:12:38.482Z,15.63
2023-05-02T15:15:09.146Z,66.65
2023-05-02T15:17:37.206Z,94.40
2023-05-02T15:20:06.070Z,145.32
2023-05-02T15:22:35.545Z,94.60
2023-05-02T15:25:05.362Z,139.70
2023-05-02T15:27:33.657Z,126.70
2023-05-02T15:30:03.244Z,167.93
2023-05-02T15:32:31.887Z,76.57
2023-05-02T15:34:59.993Z,177.52
2023-05-02T15:37:28.078Z,196.57
2023-05-02T15:39:57.568Z,101.75
2023-05-02T15:42:25.659Z,267.80
2023-05-02T15:44:54.152Z,122.72
2023-05-02T15:47:23.348Z,42.13
2023-05-02T15:49:53.967Z,127.18
2023-05-02T15:52:22.795Z,182.77
2023-05-02T15:54:51.978Z,234.65
2023-05-02T15:57:21.557Z,182.30
2023-05-02T15:59:50.034Z,92.00
2023-05-02T16:02:18.058Z,190.00
2023-05-02T16:04:46.564Z,109.55
2023-05-02T16:07:14.833Z,214.95
2023-05-02T16:09:42.858Z,202.00
2023-05-02T16:12:11.185Z,200.88
2023-05-02T16:14:40.723Z,127.63
2023-05-02T16:17:08.978Z,127.90
2023-05-02T16:19:37.081Z,40.42
2023-05-02T16:22:05.066Z,34.65
2023-05-02T16:24:33.030Z,53.58
2023-05-02T16:27:01.943Z,36.90
2023-05-02T16:29:30.049Z,15.32
2023-05-02T16:31:59.817Z,22.23
2023-05-02T16:34:28.170Z,5.10
2023-05-02T16:36:56.518Z,25.15
2023-05-02T16:39:24.666Z,15.30
2023-05-02T16:41:52.675Z,15.98
2023-05-02T16:44:20.720Z,9.07
2023-05-02T16:46:48.737Z,6.32
2023-05-02T16:49:18.191Z,8.50
2023-05-02T16:51:49.000Z,4.68
2023-05-02T16:54:17.181Z,4.60
2023-05-02T16:56:45.291Z,3.90
2023-05-02T16:59:13.438Z,7.30
2023-05-02T17:01:41.517Z,4.00
2023-05-02T17:04:09.918Z,4.47
2023-05-02T17:06:39.538Z,3.95
2023-05-02T17:09:07.705Z,3.33
2023-05-02T17:11:36.326Z,3.85
2023-05-02T17:14:04.869Z,4.30
2023-05-02T17:16:33.086Z,6.18
2023-05-02T17:19:01.297Z,6.15
2023-05-02T17:21:29.406Z,7.28
2023-05-02T17:23:58.906Z,8.65
2023-05-02T17:26:27.756Z,8.45
2023-05-02T17:28:55.877Z,6.40
2023-05-02T17:31:24.237Z,7.15
2023-05-02T17:33:52.395Z,6.93
2023-05-02T17:36:20.417Z,4.53
2023-05-02T17:38:48.556Z,3.60
2023-05-02T17:41:18.067Z,4.38
2023-05-02T17:43:46.904Z,4.82
2023-05-02T17:46:15.358Z,4.22
2023-05-02T17:48:44.656Z,4.30
2023-05-02T17:51:13.063Z,4.65
2023-05-02T17:53:42.610Z,4.72
2023-05-02T17:56:10.750Z,4.32
2023-05-02T17:58:40.112Z,5.07
2023-05-02T18:01:08.550Z,5.18
2023-05-02T18:03:36.962Z,4.65
2023-05-02T18:06:05.589Z,4.13
2023-05-02T18:08:33.802Z,5.10
2023-05-02T18:11:03.461Z,5.15
2023-05-02T18:13:32.496Z,5.70
2023-05-02T18:16:02.611Z,5.38
2023-05-02T18:18:31.066Z,6.38
2023-05-02T18:20:59.615Z,6.57
2023-05-02T18:23:27.881Z,7.00
2023-05-02T18:25:56.188Z,7.25
2023-05-02T18:28:27.214Z,6.97
2023-05-02T18:30:55.257Z,6.25
2023-05-02T18:33:24.797Z,6.18
2023-05-02T18:35:53.106Z,6.15
2023-05-02T18:38:21.136Z,8.27
2023-05-02T18:40:49.314Z,8.02
2023-05-02T18:43:17.947Z,9.80
2023-05-02T18:45:48.531Z,7.20
2023-05-02T18:48:16.843Z,7.25
2023-05-02T18:50:46.677Z,6.53
2023-05-02T18:53:15.398Z,6.60
2023-05-02T18:55:43.520Z,7.07
2023-05-02T18:58:11.588Z,7.65
2023-05-02T19:00:39.752Z,6.90
2023-05-02T19:03:08.039Z,5.80
2023-05-02T19:05:36.201Z,5.72
2023-05-02T19:08:06.413Z,5.80
2023-05-02T19:10:34.743Z,6.22
2023-05-02T19:13:03.912Z,6.28
2023-05-02T19:15:32.040Z,5.38
2023-05-02T19:18:00.625Z,5.97
2023-05-02T19:20:29.959Z,6.22
2023-05-02T19:23:18.331Z,6.60
2023-05-02T19:25:49.494Z,6.43
2023-05-02T19:28:17.785Z,5.95
2023-05-02T19:30:46.432Z,6.40
2023-05-02T19:33:14.689Z,7.75
2023-05-02T19:35:42.712Z,18.80
2023-05-02T19:38:10.870Z,14.63
2023-05-02T19:40:42.274Z,12.20
2023-05-02T19:43:11.781Z,11.02
2023-05-02T19:45:39.983Z,9.90
2023-05-02T19:48:08.459Z,9.68
2023-05-02T19:50:37.898Z,9.80
2023-05-02T19:53:06.064Z,8.55
2023-05-02T19:55:34.240Z,7.28
2023-05-02T19:58:04.442Z,7.20
2023-05-02T20:00:34.291Z,9.45
2023-05-02T20:03:03.283Z,9.73
2023-05-02T20:05:31.613Z,8.75
2023-05-02T20:08:00.233Z,7.50
2023-05-02T20:10:28.982Z,7.40
2023-05-02T20:12:57.124Z,7.65
2023-05-02T20:15:25.878Z,8.30
2023-05-02T20:17:58.113Z,8.43
2023-05-02T20:20:26.654Z,8.13
2023-05-02T20:22:55.404Z,8.05
2023-05-02T20:25:23.981Z,8.23
2023-05-02T20:27:52.857Z,9.52
2023-05-02T20:30:21.433Z,9.52
2023-05-02T20:32:49.985Z,8.55
2023-05-02T20:35:19.840Z,7.10
2023-05-02T20:37:48.763Z,8.18
2023-05-02T20:40:17.085Z,9.13
2023-05-02T20:42:45.420Z,7.93
2023-05-02T20:45:14.700Z,9.63
2023-05-02T20:47:42.976Z,8.70
2023-05-02T20:50:11.738Z,12.18
2023-05-02T20:52:41.524Z,10.85
2023-05-02T20:55:10.258Z,11.10
2023-05-02T20:57:38.489Z,9.43
2023-05-02T21:00:09.083Z,9.80
2023-05-02T21:02:37.262Z,9.07
2023-05-02T21:05:05.844Z,10.52
2023-05-02T21:07:34.129Z,10.38
2023-05-02T21:10:04.887Z,10.25
2023-05-02T21:12:33.654Z,11.18
2023-05-02T21:15:01.955Z,11.75
2023-05-02T21:17:30.745Z,10.68
2023-05-02T21:19:59.052Z,10.05
2023-05-02T21:22:27.792Z,10.20
2023-05-02T21:24:56.265Z,11.13
2023-05-02T21:27:26.242Z,10.85
2023-05-02T21:29:54.653Z,12.10
2023-05-02T21:32:22.792Z,11.68
2023-05-02T21:34:51.025Z,10.52
2023-05-02T21:37:19.235Z,10.05
2023-05-02T21:39:47.510Z,9.02
2023-05-02T21:42:15.783Z,9.20
2023-05-02T21:44:45.508Z,10.27
2023-05-02T21:47:13.855Z,11.25
2023-05-02T21:49:42.078Z,12.30
2023-05-02T21:52:10.312Z,16.73
2023-05-02T21:54:38.408Z,17.25
2023-05-02T21:57:06.489Z,14.63
2023-05-02T21:59:34.525Z,12.98
2023-05-02T22:02:04.131Z,12.73
2023-05-02T22:04:32.428Z,11.85
2023-05-02T22:07:00.753Z,12.30
2023-05-02T22:09:29.914Z,11.13
2023-05-02T22:11:59.197Z,11.88
2023-05-02T22:14:33.745Z,11.30
2023-05-02T22:17:11.323Z,8.93
2023-05-02T22:19:40.724Z,9.77
2023-05-02T22:22:08.849Z,9.63
2023-05-02T22:24:36.993Z,9.43
2023-05-02T22:27:05.204Z,9.30
2023-05-02T22:29:33.238Z,9.88
2023-05-02T22:32:01.495Z,13.15
2023-05-02T22:34:31.071Z,12.75
2023-05-02T22:36:59.146Z,12.10
2023-05-02T22:39:27.815Z,10.13
2023-05-02T22:41:55.917Z,10.27
2023-05-02T22:44:24.245Z,10.63
2023-05-02T22:46:52.398Z,9.93
2023-05-02T22:49:20.618Z,10.25
2023-05-02T22:51:50.337Z,10.10
2023-05-02T22:54:21.461Z,10.60
2023-05-02T22:56:49.621Z,10.18
2023-05-02T22:59:17.825Z,10.45
2023-05-02T23:01:46.061Z,10.90
2023-05-02T23:04:14.208Z,10.68
2023-05-02T23:06:42.476Z,10.73
2023-05-02T23:09:11.941Z,10.70
2023-05-02T23:11:40.017Z,10.45
2023-05-02T23:14:08.146Z,9.82
2023-05-02T23:16:36.339Z,9.48
2023-05-02T23:19:04.484Z,10.05
2023-05-02T23:21:32.685Z,10.38
2023-05-02T23:24:00.800Z,10.35
2023-05-02T23:26:30.629Z,10.63
2023-05-02T23:28:58.699Z,10.60
2023-05-02T23:31:27.097Z,9.88
2023-05-02T23:33:56.093Z,11.05
2023-05-02T23:36:27.286Z,10.57
2023-05-02T23:38:55.555Z,12.20
2023-05-02T23:41:23.650Z,11.30
2023-05-02T23:43:53.070Z,10.95
2023-05-02T23:46:21.137Z,11.55
2023-05-02T23:48:49.197Z,12.63
2023-05-02T23:51:17.287Z,12.63
2023-05-02T23:53:45.369Z,11.45
2023-05-02T23:56:13.409Z,11.77
2023-05-02T23:58:41.463Z,13.23
